Terminal Aerodrome Forecast
Issued by NWS

Home | Current Version | Previous Version | Text Only | Print | Product List | Glossary On
Versions: 1 2 3 4 5 6 7 8 9 10 11 12 13 14 15 16 17 18 19 20 21 22 23 24 25 26 27 28 29 30
000
FTAK31 PAFA 282030 AAA
TAFASC
TAF AMD
PASC 282030Z 2821/2918 03013KT 4SM BR OVC005
      TEMPO 2821/2822 P6SM NSW SCT005 OVC015
     FM290300 02012KT P6SM OVC015
     FM291000 32009KT P6SM BKN012
     FM291200 27010KT P6SM SCT015 OVC025=

USA.gov is the U.S. government's official web portal to all federal, state and local government web resources and services.